sensor_id;sensor_type;location;lat;lon;timestamp;P1;durP1;ratioP1;P2;durP2;ratioP2
5549;SDS011;2798;42.716;23.256;2022-07-29T00:00:43;10.77;;;9.43;;
5549;SDS011;2798;42.716;23.256;2022-07-29T00:03:12;10.83;;;9.63;;
5549;SDS011;2798;42.716;23.256;2022-07-29T00:05:39;12.00;;;10.70;;
5549;SDS011;2798;42.716;23.256;2022-07-29T00:08:05;12.30;;;9.67;;
5549;SDS011;2798;42.716;23.256;2022-07-29T00:10:31;10.37;;;9.27;;
5549;SDS011;2798;42.716;23.256;2022-07-29T00:12:56;14.60;;;10.07;;
5549;SDS011;2798;42.716;23.256;2022-07-29T00:15:22;12.33;;;10.07;;
5549;SDS011;2798;42.716;23.256;2022-07-29T00:17:47;14.60;;;9.30;;
5549;SDS011;2798;42.716;23.256;2022-07-29T00:20:13;10.37;;;8.90;;
5549;SDS011;2798;42.716;23.256;2022-07-29T00:22:38;12.70;;;8.37;;
5549;SDS011;2798;42.716;23.256;2022-07-29T00:25:04;9.43;;;8.43;;
5549;SDS011;2798;42.716;23.256;2022-07-29T00:27:30;10.80;;;9.00;;
5549;SDS011;2798;42.716;23.256;2022-07-29T00:29:56;14.03;;;9.50;;
5549;SDS011;2798;42.716;23.256;2022-07-29T00:32:21;13.27;;;10.03;;
5549;SDS011;2798;42.716;23.256;2022-07-29T00:34:46;12.53;;;10.17;;
5549;SDS011;2798;42.716;23.256;2022-07-29T00:37:30;12.20;;;10.60;;
5549;SDS011;2798;42.716;23.256;2022-07-29T00:39:56;12.30;;;9.90;;
5549;SDS011;2798;42.716;23.256;2022-07-29T00:42:21;13.10;;;10.10;;
5549;SDS011;2798;42.716;23.256;2022-07-29T00:44:47;16.70;;;9.63;;
5549;SDS011;2798;42.716;23.256;2022-07-29T00:47:12;12.87;;;10.03;;
5549;SDS011;2798;42.716;23.256;2022-07-29T00:49:41;15.53;;;9.93;;
5549;SDS011;2798;42.716;23.256;2022-07-29T00:52:07;14.27;;;10.37;;
5549;SDS011;2798;42.716;23.256;2022-07-29T00:54:35;16.77;;;10.37;;
5549;SDS011;2798;42.716;23.256;2022-07-29T00:57:01;16.73;;;11.97;;
5549;SDS011;2798;42.716;23.256;2022-07-29T00:59:27;17.63;;;12.60;;
5549;SDS011;2798;42.716;23.256;2022-07-29T01:01:53;13.57;;;11.90;;
5549;SDS011;2798;42.716;23.256;2022-07-29T01:04:19;16.40;;;11.77;;
5549;SDS011;2798;42.716;23.256;2022-07-29T01:06:48;14.13;;;11.27;;
5549;SDS011;2798;42.716;23.256;2022-07-29T01:09:14;15.23;;;11.60;;
5549;SDS011;2798;42.716;23.256;2022-07-29T01:11:41;18.37;;;11.90;;
5549;SDS011;2798;42.716;23.256;2022-07-29T01:14:08;13.47;;;11.00;;
5549;SDS011;2798;42.716;23.256;2022-07-29T01:16:51;20.07;;;11.50;;
5549;SDS011;2798;42.716;23.256;2022-07-29T01:19:29;12.87;;;11.47;;
5549;SDS011;2798;42.716;23.256;2022-07-29T01:22:58;15.47;;;11.20;;
5549;SDS011;2798;42.716;23.256;2022-07-29T01:25:05;13.50;;;10.90;;
5549;SDS011;2798;42.716;23.256;2022-07-29T01:30:24;13.17;;;10.70;;
5549;SDS011;2798;42.716;23.256;2022-07-29T01:32:56;13.57;;;10.70;;
5549;SDS011;2798;42.716;23.256;2022-07-29T01:35:26;11.93;;;10.70;;
5549;SDS011;2798;42.716;23.256;2022-07-29T01:38:12;11.80;;;10.50;;
5549;SDS011;2798;42.716;23.256;2022-07-29T01:43:31;13.00;;;9.90;;
5549;SDS011;2798;42.716;23.256;2022-07-29T01:46:02;12.60;;;10.30;;
5549;SDS011;2798;42.716;23.256;2022-07-29T01:48:37;14.40;;;10.93;;
5549;SDS011;2798;42.716;23.256;2022-07-29T01:51:07;12.73;;;10.27;;
5549;SDS011;2798;42.716;23.256;2022-07-29T01:53:46;11.77;;;10.53;;
5549;SDS011;2798;42.716;23.256;2022-07-29T01:56:16;10.50;;;9.40;;
5549;SDS011;2798;42.716;23.256;2022-07-29T01:58:44;12.33;;;10.60;;
5549;SDS011;2798;42.716;23.256;2022-07-29T02:01:11;12.80;;;10.13;;
5549;SDS011;2798;42.716;23.256;2022-07-29T02:03:38;13.07;;;10.10;;
5549;SDS011;2798;42.716;23.256;2022-07-29T02:06:04;14.47;;;9.80;;
5549;SDS011;2798;42.716;23.256;2022-07-29T02:08:32;12.83;;;10.60;;
5549;SDS011;2798;42.716;23.256;2022-07-29T02:10:59;14.17;;;9.80;;
5549;SDS011;2798;42.716;23.256;2022-07-29T02:13:27;11.77;;;10.47;;
5549;SDS011;2798;42.716;23.256;2022-07-29T02:15:55;11.60;;;10.00;;
5549;SDS011;2798;42.716;23.256;2022-07-29T02:18:22;13.80;;;9.73;;
5549;SDS011;2798;42.716;23.256;2022-07-29T02:20:52;12.10;;;9.53;;
5549;SDS011;2798;42.716;23.256;2022-07-29T02:23:20;14.63;;;10.10;;
5549;SDS011;2798;42.716;23.256;2022-07-29T02:25:51;12.60;;;10.50;;
5549;SDS011;2798;42.716;23.256;2022-07-29T02:28:19;16.23;;;9.83;;
5549;SDS011;2798;42.716;23.256;2022-07-29T02:30:45;15.30;;;9.27;;
5549;SDS011;2798;42.716;23.256;2022-07-29T02:33:13;13.10;;;9.90;;
5549;SDS011;2798;42.716;23.256;2022-07-29T02:35:41;12.93;;;10.00;;
5549;SDS011;2798;42.716;23.256;2022-07-29T02:38:11;12.70;;;9.70;;
5549;SDS011;2798;42.716;23.256;2022-07-29T02:41:00;14.23;;;9.70;;
5549;SDS011;2798;42.716;23.256;2022-07-29T02:43:28;16.90;;;10.40;;
5549;SDS011;2798;42.716;23.256;2022-07-29T02:45:56;18.80;;;11.30;;
5549;SDS011;2798;42.716;23.256;2022-07-29T02:48:27;12.77;;;11.13;;
5549;SDS011;2798;42.716;23.256;2022-07-29T02:51:05;14.83;;;11.10;;
5549;SDS011;2798;42.716;23.256;2022-07-29T02:53:33;14.73;;;10.50;;
5549;SDS011;2798;42.716;23.256;2022-07-29T02:56:02;12.90;;;10.60;;
5549;SDS011;2798;42.716;23.256;2022-07-29T02:58:40;16.60;;;10.90;;
5549;SDS011;2798;42.716;23.256;2022-07-29T03:01:08;17.00;;;12.60;;
5549;SDS011;2798;42.716;23.256;2022-07-29T03:03:38;14.50;;;12.33;;
5549;SDS011;2798;42.716;23.256;2022-07-29T03:06:06;17.07;;;13.80;;
5549;SDS011;2798;42.716;23.256;2022-07-29T03:08:33;15.30;;;12.80;;
5549;SDS011;2798;42.716;23.256;2022-07-29T03:10:59;24.37;;;13.60;;
5549;SDS011;2798;42.716;23.256;2022-07-29T03:13:26;17.40;;;12.33;;
5549;SDS011;2798;42.716;23.256;2022-07-29T03:15:54;17.80;;;14.27;;
5549;SDS011;2798;42.716;23.256;2022-07-29T03:18:20;17.10;;;14.33;;
5549;SDS011;2798;42.716;23.256;2022-07-29T03:20:47;17.20;;;14.60;;
5549;SDS011;2798;42.716;23.256;2022-07-29T03:23:12;17.80;;;14.37;;
5549;SDS011;2798;42.716;23.256;2022-07-29T03:25:44;16.83;;;14.00;;
5549;SDS011;2798;42.716;23.256;2022-07-29T03:28:09;23.03;;;15.47;;
5549;SDS011;2798;42.716;23.256;2022-07-29T03:30:35;18.07;;;14.30;;
5549;SDS011;2798;42.716;23.256;2022-07-29T03:33:00;18.53;;;14.37;;
5549;SDS011;2798;42.716;23.256;2022-07-29T03:35:26;23.90;;;14.60;;
5549;SDS011;2798;42.716;23.256;2022-07-29T03:37:51;22.17;;;15.93;;
5549;SDS011;2798;42.716;23.256;2022-07-29T03:40:22;17.47;;;14.73;;
5549;SDS011;2798;42.716;23.256;2022-07-29T03:42:51;18.17;;;14.53;;
5549;SDS011;2798;42.716;23.256;2022-07-29T03:45:19;27.50;;;15.80;;
5549;SDS011;2798;42.716;23.256;2022-07-29T03:47:50;18.33;;;15.07;;
5549;SDS011;2798;42.716;23.256;2022-07-29T03:50:18;18.70;;;13.40;;
5549;SDS011;2798;42.716;23.256;2022-07-29T03:52:45;13.50;;;11.87;;
5549;SDS011;2798;42.716;23.256;2022-07-29T03:55:12;15.83;;;11.53;;
5549;SDS011;2798;42.716;23.256;2022-07-29T03:57:39;14.73;;;11.10;;
5549;SDS011;2798;42.716;23.256;2022-07-29T04:00:05;17.80;;;11.97;;
5549;SDS011;2798;42.716;23.256;2022-07-29T04:02:33;18.63;;;11.33;;
5549;SDS011;2798;42.716;23.256;2022-07-29T04:04:59;17.87;;;12.43;;
5549;SDS011;2798;42.716;23.256;2022-07-29T04:07:24;24.30;;;11.70;;
5549;SDS011;2798;42.716;23.256;2022-07-29T04:09:50;15.07;;;11.47;;
5549;SDS011;2798;42.716;23.256;2022-07-29T04:12:16;16.90;;;12.67;;
5549;SDS011;2798;42.716;23.256;2022-07-29T04:14:41;16.57;;;13.60;;
5549;SDS011;2798;42.716;23.256;2022-07-29T04:17:07;16.20;;;13.63;;
5549;SDS011;2798;42.716;23.256;2022-07-29T04:19:32;21.93;;;12.47;;
5549;SDS011;2798;42.716;23.256;2022-07-29T04:21:59;17.33;;;12.90;;
5549;SDS011;2798;42.716;23.256;2022-07-29T04:24:26;13.57;;;11.50;;
5549;SDS011;2798;42.716;23.256;2022-07-29T04:26:52;12.87;;;11.30;;
5549;SDS011;2798;42.716;23.256;2022-07-29T04:29:17;14.57;;;12.30;;
5549;SDS011;2798;42.716;23.256;2022-07-29T04:31:43;14.50;;;12.60;;
5549;SDS011;2798;42.716;23.256;2022-07-29T04:34:08;18.00;;;13.13;;
5549;SDS011;2798;42.716;23.256;2022-07-29T04:36:34;23.30;;;13.60;;
5549;SDS011;2798;42.716;23.256;2022-07-29T04:39:00;29.03;;;15.13;;
5549;SDS011;2798;42.716;23.256;2022-07-29T04:41:26;16.70;;;13.10;;
5549;SDS011;2798;42.716;23.256;2022-07-29T04:43:52;20.40;;;13.00;;
5549;SDS011;2798;42.716;23.256;2022-07-29T04:46:18;22.90;;;14.20;;
5549;SDS011;2798;42.716;23.256;2022-07-29T04:48:45;24.90;;;13.57;;
5549;SDS011;2798;42.716;23.256;2022-07-29T04:51:11;20.07;;;11.60;;
5549;SDS011;2798;42.716;23.256;2022-07-29T04:53:36;24.43;;;11.77;;
5549;SDS011;2798;42.716;23.256;2022-07-29T04:56:02;20.27;;;12.20;;
5549;SDS011;2798;42.716;23.256;2022-07-29T04:58:27;19.10;;;11.90;;
5549;SDS011;2798;42.716;23.256;2022-07-29T05:00:53;17.90;;;12.60;;
5549;SDS011;2798;42.716;23.256;2022-07-29T05:03:18;16.30;;;12.80;;
5549;SDS011;2798;42.716;23.256;2022-07-29T05:05:44;19.77;;;12.50;;
5549;SDS011;2798;42.716;23.256;2022-07-29T05:08:09;18.87;;;13.37;;
5549;SDS011;2798;42.716;23.256;2022-07-29T05:10:35;20.40;;;12.70;;
5549;SDS011;2798;42.716;23.256;2022-07-29T05:13:06;18.30;;;13.50;;
5549;SDS011;2798;42.716;23.256;2022-07-29T05:15:36;19.83;;;15.20;;
5549;SDS011;2798;42.716;23.256;2022-07-29T05:18:01;19.43;;;14.33;;
5549;SDS011;2798;42.716;23.256;2022-07-29T05:20:28;18.30;;;13.67;;
5549;SDS011;2798;42.716;23.256;2022-07-29T05:22:57;16.93;;;13.33;;
5549;SDS011;2798;42.716;23.256;2022-07-29T05:25:25;26.00;;;14.20;;
5549;SDS011;2798;42.716;23.256;2022-07-29T05:27:51;18.37;;;14.30;;
5549;SDS011;2798;42.716;23.256;2022-07-29T05:30:17;19.67;;;14.17;;
5549;SDS011;2798;42.716;23.256;2022-07-29T05:32:42;14.40;;;12.27;;
5549;SDS011;2798;42.716;23.256;2022-07-29T05:35:08;15.30;;;13.73;;
5549;SDS011;2798;42.716;23.256;2022-07-29T05:37:33;20.17;;;14.57;;
5549;SDS011;2798;42.716;23.256;2022-07-29T05:39:59;19.70;;;13.23;;
5549;SDS011;2798;42.716;23.256;2022-07-29T05:42:24;19.70;;;14.90;;
5549;SDS011;2798;42.716;23.256;2022-07-29T05:44:50;27.67;;;13.90;;
5549;SDS011;2798;42.716;23.256;2022-07-29T05:47:16;22.83;;;13.53;;
5549;SDS011;2798;42.716;23.256;2022-07-29T05:49:41;19.10;;;15.50;;
5549;SDS011;2798;42.716;23.256;2022-07-29T05:52:07;20.30;;;14.77;;
5549;SDS011;2798;42.716;23.256;2022-07-29T05:54:34;17.43;;;14.40;;
5549;SDS011;2798;42.716;23.256;2022-07-29T05:57:00;24.20;;;15.60;;
5549;SDS011;2798;42.716;23.256;2022-07-29T05:59:25;21.20;;;14.90;;
5549;SDS011;2798;42.716;23.256;2022-07-29T06:01:51;20.83;;;15.93;;
5549;SDS011;2798;42.716;23.256;2022-07-29T06:04:16;17.50;;;14.60;;
5549;SDS011;2798;42.716;23.256;2022-07-29T06:06:41;22.90;;;14.93;;
5549;SDS011;2798;42.716;23.256;2022-07-29T06:09:07;22.50;;;16.07;;
5549;SDS011;2798;42.716;23.256;2022-07-29T06:11:32;24.83;;;15.97;;
5549;SDS011;2798;42.716;23.256;2022-07-29T06:13:58;21.47;;;14.23;;
5549;SDS011;2798;42.716;23.256;2022-07-29T06:16:23;19.50;;;14.80;;
5549;SDS011;2798;42.716;23.256;2022-07-29T06:18:49;20.27;;;16.03;;
5549;SDS011;2798;42.716;23.256;2022-07-29T06:21:14;22.13;;;14.60;;
5549;SDS011;2798;42.716;23.256;2022-07-29T06:23:40;17.50;;;15.13;;
5549;SDS011;2798;42.716;23.256;2022-07-29T06:26:05;19.23;;;15.13;;
5549;SDS011;2798;42.716;23.256;2022-07-29T06:28:31;21.10;;;14.70;;
5549;SDS011;2798;42.716;23.256;2022-07-29T06:30:57;20.03;;;16.50;;
5549;SDS011;2798;42.716;23.256;2022-07-29T06:33:23;20.33;;;16.30;;
5549;SDS011;2798;42.716;23.256;2022-07-29T06:35:49;19.30;;;12.80;;
5549;SDS011;2798;42.716;23.256;2022-07-29T06:38:15;17.67;;;12.87;;
5549;SDS011;2798;42.716;23.256;2022-07-29T06:40:41;16.70;;;12.10;;
5549;SDS011;2798;42.716;23.256;2022-07-29T06:46:10;23.47;;;14.13;;
5549;SDS011;2798;42.716;23.256;2022-07-29T06:48:37;16.10;;;12.20;;
5549;SDS011;2798;42.716;23.256;2022-07-29T06:51:04;16.90;;;11.27;;
5549;SDS011;2798;42.716;23.256;2022-07-29T06:53:31;20.77;;;11.70;;
5549;SDS011;2798;42.716;23.256;2022-07-29T06:55:57;13.47;;;11.50;;
5549;SDS011;2798;42.716;23.256;2022-07-29T06:58:25;16.83;;;10.10;;
5549;SDS011;2798;42.716;23.256;2022-07-29T07:00:51;11.40;;;9.97;;
5549;SDS011;2798;42.716;23.256;2022-07-29T07:03:16;13.33;;;10.37;;
5549;SDS011;2798;42.716;23.256;2022-07-29T07:05:43;12.57;;;9.20;;
5549;SDS011;2798;42.716;23.256;2022-07-29T07:08:09;8.97;;;6.00;;
5549;SDS011;2798;42.716;23.256;2022-07-29T07:10:35;12.93;;;5.50;;
5549;SDS011;2798;42.716;23.256;2022-07-29T07:13:00;11.90;;;6.20;;
5549;SDS011;2798;42.716;23.256;2022-07-29T07:15:26;12.07;;;6.60;;
5549;SDS011;2798;42.716;23.256;2022-07-29T07:17:52;7.60;;;5.50;;
5549;SDS011;2798;42.716;23.256;2022-07-29T07:20:18;8.10;;;5.03;;
5549;SDS011;2798;42.716;23.256;2022-07-29T07:22:43;7.40;;;5.30;;
5549;SDS011;2798;42.716;23.256;2022-07-29T07:25:09;6.23;;;5.23;;
5549;SDS011;2798;42.716;23.256;2022-07-29T07:27:35;21.53;;;5.93;;
5549;SDS011;2798;42.716;23.256;2022-07-29T07:30:02;9.70;;;4.90;;
5549;SDS011;2798;42.716;23.256;2022-07-29T07:32:30;9.03;;;5.40;;
5549;SDS011;2798;42.716;23.256;2022-07-29T07:34:56;8.20;;;4.97;;
5549;SDS011;2798;42.716;23.256;2022-07-29T07:37:22;7.63;;;5.67;;
5549;SDS011;2798;42.716;23.256;2022-07-29T07:39:49;11.53;;;4.80;;
5549;SDS011;2798;42.716;23.256;2022-07-29T07:42:15;6.60;;;4.80;;
5549;SDS011;2798;42.716;23.256;2022-07-29T07:44:40;6.03;;;4.23;;
5549;SDS011;2798;42.716;23.256;2022-07-29T07:47:06;5.93;;;4.93;;
5549;SDS011;2798;42.716;23.256;2022-07-29T07:49:31;6.70;;;4.77;;
5549;SDS011;2798;42.716;23.256;2022-07-29T07:51:57;6.10;;;5.03;;
5549;SDS011;2798;42.716;23.256;2022-07-29T07:54:22;7.30;;;4.80;;
5549;SDS011;2798;42.716;23.256;2022-07-29T07:56:48;15.87;;;4.97;;
5549;SDS011;2798;42.716;23.256;2022-07-29T07:59:14;6.77;;;4.90;;
5549;SDS011;2798;42.716;23.256;2022-07-29T08:01:40;5.90;;;5.03;;
5549;SDS011;2798;42.716;23.256;2022-07-29T08:04:06;5.40;;;4.90;;
5549;SDS011;2798;42.716;23.256;2022-07-29T08:06:32;8.43;;;6.10;;
5549;SDS011;2798;42.716;23.256;2022-07-29T08:08:59;6.30;;;4.73;;
5549;SDS011;2798;42.716;23.256;2022-07-29T08:11:25;7.30;;;5.00;;
5549;SDS011;2798;42.716;23.256;2022-07-29T08:13:51;9.33;;;5.53;;
5549;SDS011;2798;42.716;23.256;2022-07-29T08:16:17;7.10;;;4.40;;
5549;SDS011;2798;42.716;23.256;2022-07-29T08:18:43;5.00;;;4.50;;
5549;SDS011;2798;42.716;23.256;2022-07-29T08:21:10;7.00;;;4.40;;
5549;SDS011;2798;42.716;23.256;2022-07-29T08:23:36;4.90;;;4.50;;
5549;SDS011;2798;42.716;23.256;2022-07-29T08:26:10;7.73;;;5.07;;
5549;SDS011;2798;42.716;23.256;2022-07-29T08:28:40;5.10;;;4.57;;
5549;SDS011;2798;42.716;23.256;2022-07-29T08:31:11;5.17;;;4.03;;
5549;SDS011;2798;42.716;23.256;2022-07-29T08:33:38;6.70;;;4.87;;
5549;SDS011;2798;42.716;23.256;2022-07-29T08:36:04;7.60;;;4.10;;
5549;SDS011;2798;42.716;23.256;2022-07-29T08:38:31;4.20;;;3.87;;
5549;SDS011;2798;42.716;23.256;2022-07-29T08:40:56;4.90;;;4.20;;
5549;SDS011;2798;42.716;23.256;2022-07-29T08:43:23;6.27;;;4.67;;
5549;SDS011;2798;42.716;23.256;2022-07-29T08:45:49;5.50;;;4.40;;
5549;SDS011;2798;42.716;23.256;2022-07-29T08:48:16;5.33;;;4.20;;
5549;SDS011;2798;42.716;23.256;2022-07-29T08:50:44;4.00;;;3.70;;
5549;SDS011;2798;42.716;23.256;2022-07-29T08:53:11;4.40;;;4.00;;
5549;SDS011;2798;42.716;23.256;2022-07-29T08:55:41;5.40;;;4.03;;
5549;SDS011;2798;42.716;23.256;2022-07-29T08:58:08;4.40;;;4.00;;
5549;SDS011;2798;42.716;23.256;2022-07-29T09:00:34;4.87;;;4.30;;
5549;SDS011;2798;42.716;23.256;2022-07-29T09:03:02;5.93;;;4.37;;
5549;SDS011;2798;42.716;23.256;2022-07-29T09:05:29;6.23;;;4.20;;
5549;SDS011;2798;42.716;23.256;2022-07-29T09:07:57;9.27;;;4.33;;
5549;SDS011;2798;42.716;23.256;2022-07-29T09:10:24;7.97;;;4.10;;
5549;SDS011;2798;42.716;23.256;2022-07-29T09:12:49;5.77;;;3.47;;
5549;SDS011;2798;42.716;23.256;2022-07-29T09:15:15;4.83;;;3.90;;
5549;SDS011;2798;42.716;23.256;2022-07-29T09:20:11;7.30;;;3.80;;
5549;SDS011;2798;42.716;23.256;2022-07-29T09:22:42;6.93;;;4.50;;
5549;SDS011;2798;42.716;23.256;2022-07-29T09:25:08;13.40;;;4.23;;
5549;SDS011;2798;42.716;23.256;2022-07-29T09:27:36;6.43;;;3.70;;
5549;SDS011;2798;42.716;23.256;2022-07-29T09:30:04;4.20;;;3.80;;
5549;SDS011;2798;42.716;23.256;2022-07-29T09:32:31;4.37;;;3.77;;
5549;SDS011;2798;42.716;23.256;2022-07-29T09:35:14;4.50;;;3.90;;
5549;SDS011;2798;42.716;23.256;2022-07-29T09:37:44;7.43;;;4.23;;
5549;SDS011;2798;42.716;23.256;2022-07-29T09:40:11;4.03;;;3.63;;
5549;SDS011;2798;42.716;23.256;2022-07-29T09:42:37;5.10;;;4.10;;
5549;SDS011;2798;42.716;23.256;2022-07-29T09:45:03;4.23;;;3.27;;
5549;SDS011;2798;42.716;23.256;2022-07-29T09:47:42;8.70;;;3.97;;
5549;SDS011;2798;42.716;23.256;2022-07-29T09:50:12;5.80;;;3.90;;
5549;SDS011;2798;42.716;23.256;2022-07-29T09:52:47;3.90;;;3.60;;
5549;SDS011;2798;42.716;23.256;2022-07-29T09:55:14;5.83;;;3.70;;
5549;SDS011;2798;42.716;23.256;2022-07-29T09:57:40;7.20;;;4.00;;
5549;SDS011;2798;42.716;23.256;2022-07-29T10:00:07;3.40;;;3.10;;
5549;SDS011;2798;42.716;23.256;2022-07-29T10:02:36;6.40;;;3.73;;
5549;SDS011;2798;42.716;23.256;2022-07-29T10:05:04;5.50;;;4.27;;
5549;SDS011;2798;42.716;23.256;2022-07-29T10:07:44;4.43;;;3.70;;
5549;SDS011;2798;42.716;23.256;2022-07-29T10:10:18;4.50;;;4.10;;
5549;SDS011;2798;42.716;23.256;2022-07-29T10:12:54;4.40;;;3.97;;
5549;SDS011;2798;42.716;23.256;2022-07-29T10:15:22;4.77;;;4.20;;
5549;SDS011;2798;42.716;23.256;2022-07-29T10:17:49;5.67;;;3.67;;
5549;SDS011;2798;42.716;23.256;2022-07-29T10:20:16;4.17;;;3.77;;
5549;SDS011;2798;42.716;23.256;2022-07-29T10:22:42;5.50;;;4.10;;
5549;SDS011;2798;42.716;23.256;2022-07-29T10:25:09;5.90;;;4.10;;
5549;SDS011;2798;42.716;23.256;2022-07-29T10:27:35;7.63;;;3.53;;
5549;SDS011;2798;42.716;23.256;2022-07-29T10:30:02;11.93;;;4.70;;
5549;SDS011;2798;42.716;23.256;2022-07-29T10:38:07;5.53;;;3.80;;
5549;SDS011;2798;42.716;23.256;2022-07-29T10:40:54;4.33;;;3.93;;
5549;SDS011;2798;42.716;23.256;2022-07-29T10:43:50;3.93;;;3.30;;
5549;SDS011;2798;42.716;23.256;2022-07-29T10:46:16;4.70;;;3.43;;
5549;SDS011;2798;42.716;23.256;2022-07-29T10:54:19;7.60;;;4.60;;
5549;SDS011;2798;42.716;23.256;2022-07-29T10:59:39;4.87;;;4.37;;
5549;SDS011;2798;42.716;23.256;2022-07-29T11:05:07;4.37;;;4.00;;
5549;SDS011;2798;42.716;23.256;2022-07-29T11:07:40;3.90;;;3.50;;
5549;SDS011;2798;42.716;23.256;2022-07-29T11:10:45;6.20;;;3.70;;
5549;SDS011;2798;42.716;23.256;2022-07-29T11:13:11;4.63;;;3.50;;
5549;SDS011;2798;42.716;23.256;2022-07-29T11:15:54;4.90;;;3.97;;
5549;SDS011;2798;42.716;23.256;2022-07-29T11:18:21;9.87;;;3.50;;
5549;SDS011;2798;42.716;23.256;2022-07-29T11:20:47;4.70;;;4.20;;
5549;SDS011;2798;42.716;23.256;2022-07-29T11:23:18;6.27;;;4.47;;
5549;SDS011;2798;42.716;23.256;2022-07-29T11:31:54;6.03;;;4.17;;
5549;SDS011;2798;42.716;23.256;2022-07-29T11:34:17;5.47;;;3.80;;
5549;SDS011;2798;42.716;23.256;2022-07-29T11:39:37;4.90;;;4.50;;
5549;SDS011;2798;42.716;23.256;2022-07-29T11:44:58;5.00;;;3.83;;
5549;SDS011;2798;42.716;23.256;2022-07-29T11:47:30;4.00;;;3.60;;
5549;SDS011;2798;42.716;23.256;2022-07-29T11:49:56;7.90;;;3.87;;
5549;SDS011;2798;42.716;23.256;2022-07-29T11:52:22;4.00;;;3.60;;
5549;SDS011;2798;42.716;23.256;2022-07-29T11:54:56;7.43;;;3.60;;
5549;SDS011;2798;42.716;23.256;2022-07-29T11:57:22;10.43;;;3.80;;
5549;SDS011;2798;42.716;23.256;2022-07-29T11:59:50;5.77;;;4.40;;
5549;SDS011;2798;42.716;23.256;2022-07-29T12:02:16;4.20;;;3.80;;
5549;SDS011;2798;42.716;23.256;2022-07-29T12:04:56;4.50;;;3.63;;
5549;SDS011;2798;42.716;23.256;2022-07-29T12:07:27;5.27;;;4.77;;
5549;SDS011;2798;42.716;23.256;2022-07-29T12:09:53;5.73;;;4.57;;
5549;SDS011;2798;42.716;23.256;2022-07-29T12:12:19;5.50;;;3.50;;
5549;SDS011;2798;42.716;23.256;2022-07-29T12:14:45;5.30;;;4.80;;
5549;SDS011;2798;42.716;23.256;2022-07-29T12:19:59;4.13;;;3.73;;
5549;SDS011;2798;42.716;23.256;2022-07-29T12:25:12;5.53;;;3.97;;
5549;SDS011;2798;42.716;23.256;2022-07-29T12:27:40;7.53;;;3.83;;
5549;SDS011;2798;42.716;23.256;2022-07-29T12:30:08;7.40;;;4.63;;
5549;SDS011;2798;42.716;23.256;2022-07-29T12:32:40;6.40;;;4.63;;
5549;SDS011;2798;42.716;23.256;2022-07-29T12:35:12;4.87;;;4.43;;
5549;SDS011;2798;42.716;23.256;2022-07-29T12:37:43;8.63;;;4.00;;
5549;SDS011;2798;42.716;23.256;2022-07-29T12:40:11;5.00;;;4.00;;
5549;SDS011;2798;42.716;23.256;2022-07-29T12:42:39;5.10;;;3.80;;
5549;SDS011;2798;42.716;23.256;2022-07-29T12:45:05;4.30;;;3.90;;
5549;SDS011;2798;42.716;23.256;2022-07-29T12:47:33;4.57;;;4.03;;
5549;SDS011;2798;42.716;23.256;2022-07-29T12:50:15;4.87;;;3.80;;
5549;SDS011;2798;42.716;23.256;2022-07-29T12:52:42;6.97;;;4.27;;
5549;SDS011;2798;42.716;23.256;2022-07-29T12:55:09;9.97;;;4.30;;
5549;SDS011;2798;42.716;23.256;2022-07-29T12:57:44;4.20;;;3.80;;
5549;SDS011;2798;42.716;23.256;2022-07-29T13:00:13;5.27;;;4.03;;
5549;SDS011;2798;42.716;23.256;2022-07-29T13:02:41;5.50;;;4.80;;
5549;SDS011;2798;42.716;23.256;2022-07-29T13:05:08;4.30;;;3.80;;
5549;SDS011;2798;42.716;23.256;2022-07-29T13:07:35;5.80;;;4.40;;
5549;SDS011;2798;42.716;23.256;2022-07-29T13:10:18;4.73;;;4.33;;
5549;SDS011;2798;42.716;23.256;2022-07-29T13:15:38;6.50;;;4.80;;
5549;SDS011;2798;42.716;23.256;2022-07-29T13:18:25;5.30;;;4.60;;
5549;SDS011;2798;42.716;23.256;2022-07-29T13:21:13;4.57;;;4.10;;
5549;SDS011;2798;42.716;23.256;2022-07-29T13:23:40;5.73;;;4.60;;
5549;SDS011;2798;42.716;23.256;2022-07-29T13:26:06;7.47;;;4.67;;
5549;SDS011;2798;42.716;23.256;2022-07-29T13:28:33;5.53;;;5.03;;
5549;SDS011;2798;42.716;23.256;2022-07-29T13:30:59;6.30;;;4.70;;
5549;SDS011;2798;42.716;23.256;2022-07-29T13:33:25;5.40;;;4.90;;
5549;SDS011;2798;42.716;23.256;2022-07-29T13:35:50;4.80;;;4.30;;
5549;SDS011;2798;42.716;23.256;2022-07-29T13:38:15;6.27;;;4.70;;
5549;SDS011;2798;42.716;23.256;2022-07-29T13:40:41;5.73;;;4.90;;
5549;SDS011;2798;42.716;23.256;2022-07-29T13:43:08;5.03;;;4.33;;
5549;SDS011;2798;42.716;23.256;2022-07-29T13:45:34;5.63;;;5.13;;
5549;SDS011;2798;42.716;23.256;2022-07-29T13:48:00;6.40;;;4.53;;
5549;SDS011;2798;42.716;23.256;2022-07-29T13:50:25;4.85;;;4.45;;
5549;SDS011;2798;42.716;23.256;2022-07-29T13:52:51;5.95;;;5.25;;
5549;SDS011;2798;42.716;23.256;2022-07-29T13:55:16;6.10;;;4.50;;
5549;SDS011;2798;42.716;23.256;2022-07-29T13:57:42;6.95;;;4.72;;
5549;SDS011;2798;42.716;23.256;2022-07-29T14:00:07;5.22;;;4.70;;
5549;SDS011;2798;42.716;23.256;2022-07-29T14:02:33;4.77;;;4.37;;
5549;SDS011;2798;42.716;23.256;2022-07-29T14:04:59;8.70;;;4.65;;
5549;SDS011;2798;42.716;23.256;2022-07-29T14:07:24;5.63;;;4.80;;
5549;SDS011;2798;42.716;23.256;2022-07-29T14:09:50;4.23;;;3.83;;
5549;SDS011;2798;42.716;23.256;2022-07-29T14:12:15;5.27;;;4.03;;
5549;SDS011;2798;42.716;23.256;2022-07-29T14:14:41;4.83;;;3.73;;
5549;SDS011;2798;42.716;23.256;2022-07-29T14:17:06;4.90;;;4.40;;
5549;SDS011;2798;42.716;23.256;2022-07-29T14:19:32;6.20;;;4.73;;
5549;SDS011;2798;42.716;23.256;2022-07-29T14:22:01;8.60;;;6.80;;
5549;SDS011;2798;42.716;23.256;2022-07-29T14:24:30;8.17;;;7.10;;
5549;SDS011;2798;42.716;23.256;2022-07-29T14:26:56;5.43;;;4.93;;
5549;SDS011;2798;42.716;23.256;2022-07-29T14:29:21;5.30;;;4.17;;
5549;SDS011;2798;42.716;23.256;2022-07-29T14:31:47;5.43;;;4.93;;
5549;SDS011;2798;42.716;23.256;2022-07-29T14:34:12;5.87;;;5.27;;
5549;SDS011;2798;42.716;23.256;2022-07-29T14:36:40;5.97;;;5.03;;
5549;SDS011;2798;42.716;23.256;2022-07-29T14:39:06;4.63;;;4.13;;
5549;SDS011;2798;42.716;23.256;2022-07-29T14:41:31;4.90;;;4.40;;
5549;SDS011;2798;42.716;23.256;2022-07-29T14:43:57;4.70;;;4.30;;
5549;SDS011;2798;42.716;23.256;2022-07-29T14:46:25;5.10;;;4.70;;
5549;SDS011;2798;42.716;23.256;2022-07-29T14:48:51;5.67;;;5.10;;
5549;SDS011;2798;42.716;23.256;2022-07-29T14:51:17;6.07;;;5.47;;
5549;SDS011;2798;42.716;23.256;2022-07-29T14:53:42;6.23;;;5.07;;
5549;SDS011;2798;42.716;23.256;2022-07-29T14:56:08;4.73;;;4.20;;
5549;SDS011;2798;42.716;23.256;2022-07-29T14:58:33;7.13;;;5.13;;
5549;SDS011;2798;42.716;23.256;2022-07-29T15:00:59;5.50;;;5.00;;
5549;SDS011;2798;42.716;23.256;2022-07-29T15:03:24;5.75;;;4.70;;
5549;SDS011;2798;42.716;23.256;2022-07-29T15:05:50;6.30;;;4.20;;
5549;SDS011;2798;42.716;23.256;2022-07-29T15:08:15;6.63;;;4.28;;
5549;SDS011;2798;42.716;23.256;2022-07-29T15:10:40;4.25;;;3.95;;
5549;SDS011;2798;42.716;23.256;2022-07-29T15:13:06;5.03;;;4.57;;
5549;SDS011;2798;42.716;23.256;2022-07-29T15:15:31;4.60;;;4.18;;
5549;SDS011;2798;42.716;23.256;2022-07-29T15:17:57;7.20;;;5.80;;
5549;SDS011;2798;42.716;23.256;2022-07-29T15:20:22;5.60;;;4.47;;
5549;SDS011;2798;42.716;23.256;2022-07-29T15:22:50;5.53;;;5.03;;
5549;SDS011;2798;42.716;23.256;2022-07-29T15:25:15;5.65;;;5.15;;
5549;SDS011;2798;42.716;23.256;2022-07-29T15:27:41;9.70;;;7.25;;
5549;SDS011;2798;42.716;23.256;2022-07-29T15:30:06;4.05;;;3.75;;
5549;SDS011;2798;42.716;23.256;2022-07-29T15:32:32;4.50;;;4.10;;
5549;SDS011;2798;42.716;23.256;2022-07-29T15:34:58;6.93;;;4.78;;
5549;SDS011;2798;42.716;23.256;2022-07-29T15:37:23;8.73;;;7.32;;
5549;SDS011;2798;42.716;23.256;2022-07-29T15:39:48;16.10;;;14.50;;